Observations for Trim Patrick St
| Time | AQI | Temp °C | Hum % | Pres Pa | CO μg/m³ | H₂S μg/m³ | NO μg/m³ | NO₂ μg/m³ | O₃ μg/m³ | SO₂ μg/m³ | PM1 μg/m³ | PM2.5 μg/m³ | PM10 μg/m³ |
|---|---|---|---|---|---|---|---|---|---|---|---|---|---|
| Saturday 1 August 2026 | |||||||||||||
| 19:19 | 3 | 28.2 | 33 | 69,134 | 0 | 9.58 | 1.12 | 21.29 | 97.48 | 14.8 | 6.29 | 15.51 | 17.06 |
| 19:18 | 3 | 28.4 | 32 | 69,136 | 0 | 1.89 | 1.19 | 18.57 | 98.28 | 14.33 | 4.57 | 11.52 | 12.67 |
| 19:17 | 3 | 28.5 | 32 | 69,143 | 0 | 0 | 1.27 | 11.96 | 80.28 | 13.94 | 4.57 | 11.54 | 12.69 |
| 19:16 | 3 | 28.7 | 33 | 69,183 | 0 | 3.36 | 1.29 | 20.88 | 95.43 | 13.79 | 6.29 | 12.3 | 13.53 |
| 19:15 | 3 | 28.9 | 32 | 69,202 | 0 | 0 | 1.28 | 19.15 | 82.47 | 13.18 | 4.57 | 11.53 | 12.68 |
| 19:14 | 3 | 29 | 32 | 69,201 | 0 | 0 | 1.21 | 14.65 | 83.91 | 13.78 | 4.57 | 12.38 | 13.62 |
| 19:13 | 3 | 29.1 | 31 | 69,195 | 0 | 0 | 1.24 | 13.79 | 95.76 | 13.93 | 5.43 | 13.21 | 14.53 |
| 19:12 | 3 | 29.2 | 32 | 69,214 | 0 | 0 | 1.25 | 17.59 | 76.94 | 12.38 | 5.43 | 12.39 | 13.63 |
| 19:11 | 3 | 29.3 | 31 | 69,212 | 0 | 0 | 1.24 | 14.67 | 84.85 | 14.14 | 5.43 | 12.42 | 13.66 |
| 19:10 | 3 | 29.3 | 31 | 69,208 | 0 | 0 | 1.23 | 26.33 | 91.24 | 13.44 | 4.57 | 10.84 | 11.92 |
| 19:09 | 3 | 29.4 | 31 | 69,199 | 0 | 0 | 1.26 | 14.67 | 84.53 | 13.27 | 3.71 | 10.01 | 11.01 |
| 19:08 | 3 | 29.4 | 32 | 69,216 | 0 | 0 | 1.31 | 13.45 | 77.75 | 14.06 | 4.57 | 10.72 | 11.79 |
| 19:07 | 3 | 29.5 | 32 | 69,212 | 0 | 0 | 1.27 | 15.98 | 84.27 | 13.75 | 3.71 | 10.77 | 11.85 |
| 19:06 | 3 | 29.5 | 32 | 69,208 | 0 | 0 | 1.26 | 21.47 | 83.27 | 13.33 | 2.86 | 9.99 | 10.99 |
| 19:05 | 3 | 29.6 | 31 | 69,226 | 0 | 0 | 1.26 | 23.62 | 86.76 | 12.88 | 2.86 | 8.4 | 9.24 |
| 19:04 | 3 | 29.7 | 31 | 69,228 | 0 | 0 | 1.22 | 23.19 | 90.47 | 13.62 | 2.86 | 9.23 | 10.15 |
| 19:03 | 3 | 29.8 | 31 | 69,222 | 0 | 0 | 1.24 | 22.06 | 86.71 | 13.25 | 2.86 | 8.43 | 9.27 |
| 19:02 | 3 | 29.9 | 31 | 69,222 | 0 | 0 | 1.25 | 15.55 | 78.05 | 13.4 | 2.86 | 10.05 | 11.05 |
| 19:01 | 3 | 29.9 | 32 | 69,218 | 0 | 0 | 1.28 | 23.68 | 85.83 | 12.09 | 4.57 | 10.78 | 11.85 |
| 19:00 | 3 | 29.9 | 32 | 69,210 | 0 | 0 | 1.3 | 24.27 | 91.58 | 13.73 | 2.86 | 8.34 | 9.18 |